sensor_id;sensor_type;location;lat;lon;timestamp;pressure;altitude;pressure_sealevel;temperature;humidity
4273;BME280;63887;53.656;9.810;2023-02-27T00:02:24;102914.97;;;-1.55;86.33
4273;BME280;63887;53.656;9.810;2023-02-27T00:04:51;102913.31;;;-1.53;86.46
4273;BME280;63887;53.656;9.810;2023-02-27T00:07:18;102911.34;;;-1.62;87.44
4273;BME280;63887;53.656;9.810;2023-02-27T00:09:50;102908.66;;;-1.65;87.70
4273;BME280;63887;53.656;9.810;2023-02-27T00:12:16;102909.66;;;-1.61;86.78
4273;BME280;63887;53.656;9.810;2023-02-27T00:14:44;102912.06;;;-1.66;87.83
4273;BME280;63887;53.656;9.810;2023-02-27T00:17:10;102911.19;;;-1.66;86.21
4273;BME280;63887;53.656;9.810;2023-02-27T00:19:37;102910.47;;;-1.62;85.98
4273;BME280;63887;53.656;9.810;2023-02-27T00:22:03;102918.25;;;-1.61;85.35
4273;BME280;63887;53.656;9.810;2023-02-27T00:24:30;102912.06;;;-1.66;86.09
4273;BME280;63887;53.656;9.810;2023-02-27T00:26:56;102908.94;;;-1.56;86.12
4273;BME280;63887;53.656;9.810;2023-02-27T00:29:23;102911.66;;;-1.51;85.64
4273;BME280;63887;53.656;9.810;2023-02-27T00:31:50;102912.41;;;-1.55;86.45
4273;BME280;63887;53.656;9.810;2023-02-27T00:34:17;102907.22;;;-1.57;86.42
4273;BME280;63887;53.656;9.810;2023-02-27T00:36:43;102914.13;;;-1.54;87.50
4273;BME280;63887;53.656;9.810;2023-02-27T00:39:10;102913.50;;;-1.47;85.58
4273;BME280;63887;53.656;9.810;2023-02-27T00:41:36;102916.38;;;-1.36;85.73
4273;BME280;63887;53.656;9.810;2023-02-27T00:44:04;102914.72;;;-1.34;85.25
4273;BME280;63887;53.656;9.810;2023-02-27T00:46:30;102913.03;;;-1.34;85.38
4273;BME280;63887;53.656;9.810;2023-02-27T00:48:58;102914.47;;;-1.43;85.22
4273;BME280;63887;53.656;9.810;2023-02-27T00:51:25;102913.63;;;-1.42;85.81
4273;BME280;63887;53.656;9.810;2023-02-27T00:53:51;102909.28;;;-1.45;86.22
4273;BME280;63887;53.656;9.810;2023-02-27T00:56:17;102910.00;;;-1.49;85.94
4273;BME280;63887;53.656;9.810;2023-02-27T00:58:44;102913.19;;;-1.58;87.04
4273;BME280;63887;53.656;9.810;2023-02-27T01:01:10;102915.56;;;-1.64;87.19
4273;BME280;63887;53.656;9.810;2023-02-27T01:03:37;102922.34;;;-1.66;87.73
4273;BME280;63887;53.656;9.810;2023-02-27T01:06:05;102918.03;;;-1.67;86.70
4273;BME280;63887;53.656;9.810;2023-02-27T01:08:32;102914.47;;;-1.72;87.38
4273;BME280;63887;53.656;9.810;2023-02-27T01:10:59;102915.22;;;-1.76;87.09
4273;BME280;63887;53.656;9.810;2023-02-27T01:13:25;102910.84;;;-1.78;87.20
4273;BME280;63887;53.656;9.810;2023-02-27T01:15:52;102909.94;;;-1.79;87.37
4273;BME280;63887;53.656;9.810;2023-02-27T01:18:18;102908.06;;;-1.85;87.52
4273;BME280;63887;53.656;9.810;2023-02-27T01:20:44;102910.47;;;-1.91;88.11
4273;BME280;63887;53.656;9.810;2023-02-27T01:23:12;102906.03;;;-1.95;88.19
4273;BME280;63887;53.656;9.810;2023-02-27T01:25:39;102904.53;;;-1.88;87.74
4273;BME280;63887;53.656;9.810;2023-02-27T01:28:05;102904.44;;;-1.91;87.73
4273;BME280;63887;53.656;9.810;2023-02-27T01:30:31;102904.28;;;-1.96;88.61
4273;BME280;63887;53.656;9.810;2023-02-27T01:32:58;102903.47;;;-1.95;87.88
4273;BME280;63887;53.656;9.810;2023-02-27T01:35:24;102906.91;;;-1.94;88.32
4273;BME280;63887;53.656;9.810;2023-02-27T01:37:51;102902.78;;;-1.89;87.05
4273;BME280;63887;53.656;9.810;2023-02-27T01:40:19;102904.44;;;-1.91;87.60
4273;BME280;63887;53.656;9.810;2023-02-27T01:42:45;102904.28;;;-1.96;88.16
4273;BME280;63887;53.656;9.810;2023-02-27T01:45:30;102903.38;;;-1.98;88.16
4273;BME280;63887;53.656;9.810;2023-02-27T01:48:05;102906.97;;;-1.93;87.54
4273;BME280;63887;53.656;9.810;2023-02-27T01:50:35;102898.22;;;-1.98;88.26
4273;BME280;63887;53.656;9.810;2023-02-27T01:53:04;102902.50;;;-1.98;88.29
4273;BME280;63887;53.656;9.810;2023-02-27T01:55:35;102903.31;;;-1.99;88.55
4273;BME280;63887;53.656;9.810;2023-02-27T01:58:04;102904.44;;;-1.91;88.15
4273;BME280;63887;53.656;9.810;2023-02-27T02:00:31;102905.69;;;-2.07;89.38
4273;BME280;63887;53.656;9.810;2023-02-27T02:03:03;102910.75;;;-2.08;89.36
4273;BME280;63887;53.656;9.810;2023-02-27T02:05:32;102912.25;;;-2.15;90.49
4273;BME280;63887;53.656;9.810;2023-02-27T02:07:59;102917.44;;;-2.14;89.84
4273;BME280;63887;53.656;9.810;2023-02-27T02:10:26;102915.75;;;-2.13;89.84
4273;BME280;63887;53.656;9.810;2023-02-27T02:12:55;102912.13;;;-2.20;89.97
4273;BME280;63887;53.656;9.810;2023-02-27T02:15:28;102915.69;;;-2.15;89.82
4273;BME280;63887;53.656;9.810;2023-02-27T02:18:04;102915.88;;;-2.08;89.05
4273;BME280;63887;53.656;9.810;2023-02-27T02:21:11;102915.69;;;-2.15;89.58
4273;BME280;63887;53.656;9.810;2023-02-27T02:24:09;102913.25;;;-2.10;89.13
4273;BME280;63887;53.656;9.810;2023-02-27T02:26:57;102923.28;;;-1.92;88.28
4273;BME280;63887;53.656;9.810;2023-02-27T02:30:09;102931.47;;;-2.04;88.47
4273;BME280;63887;53.656;9.810;2023-02-27T02:36:03;102925.28;;;-2.09;89.22
4273;BME280;63887;53.656;9.810;2023-02-27T02:39:13;102928.41;;;-2.19;89.86
4273;BME280;63887;53.656;9.810;2023-02-27T02:41:54;102925.81;;;-2.21;90.21
4273;BME280;63887;53.656;9.810;2023-02-27T02:44:32;102926.75;;;-2.17;89.53
4273;BME280;63887;53.656;9.810;2023-02-27T02:47:04;102929.25;;;-2.20;89.43
4273;BME280;63887;53.656;9.810;2023-02-27T02:49:42;102926.75;;;-2.17;88.82
4273;BME280;63887;53.656;9.810;2023-02-27T02:52:15;102926.22;;;-2.34;89.48
4273;BME280;63887;53.656;9.810;2023-02-27T02:54:49;102922.72;;;-2.36;90.14
4273;BME280;63887;53.656;9.810;2023-02-27T02:57:22;102923.00;;;-2.27;88.97
4273;BME280;63887;53.656;9.810;2023-02-27T02:59:55;102922.81;;;-2.33;89.75
4273;BME280;63887;53.656;9.810;2023-02-27T03:02:25;102928.56;;;-2.15;88.68
4273;BME280;63887;53.656;9.810;2023-02-27T03:04:57;102931.13;;;-2.15;87.80
4273;BME280;63887;53.656;9.810;2023-02-27T03:07:28;102928.38;;;-2.21;87.57
4273;BME280;63887;53.656;9.810;2023-02-27T03:10:02;102919.38;;;-2.33;89.26
4273;BME280;63887;53.656;9.810;2023-02-27T03:12:32;102923.22;;;-2.21;88.31
4273;BME280;63887;53.656;9.810;2023-02-27T03:15:02;102916.84;;;-2.32;88.62
4273;BME280;63887;53.656;9.810;2023-02-27T03:17:38;102927.81;;;-2.37;89.24
4273;BME280;63887;53.656;9.810;2023-02-27T03:20:08;102931.72;;;-2.49;89.64
4273;BME280;63887;53.656;9.810;2023-02-27T03:22:37;102926.59;;;-2.49;90.36
4273;BME280;63887;53.656;9.810;2023-02-27T03:25:08;102923.28;;;-2.45;89.47
4273;BME280;63887;53.656;9.810;2023-02-27T03:27:38;102932.56;;;-2.50;89.91
4273;BME280;63887;53.656;9.810;2023-02-27T03:30:09;102934.59;;;-2.40;89.36
4273;BME280;63887;53.656;9.810;2023-02-27T03:32:39;102935.25;;;-2.45;89.89
4273;BME280;63887;53.656;9.810;2023-02-27T03:35:08;102937.16;;;-2.40;89.45
4273;BME280;63887;53.656;9.810;2023-02-27T03:37:43;102937.59;;;-2.53;90.74
4273;BME280;63887;53.656;9.810;2023-02-27T03:40:23;102936.81;;;-2.50;90.43
4273;BME280;63887;53.656;9.810;2023-02-27T03:42:54;102932.28;;;-2.57;90.35
4273;BME280;63887;53.656;9.810;2023-02-27T03:45:25;102935.47;;;-2.64;91.82
4273;BME280;63887;53.656;9.810;2023-02-27T03:47:53;102933.78;;;-2.64;90.88
4273;BME280;63887;53.656;9.810;2023-02-27T03:50:20;102945.91;;;-2.60;90.57
4273;BME280;63887;53.656;9.810;2023-02-27T03:52:47;102946.63;;;-2.64;90.26
4273;BME280;63887;53.656;9.810;2023-02-27T03:55:17;102961.75;;;-2.72;91.28
4273;BME280;63887;53.656;9.810;2023-02-27T03:57:47;102949.72;;;-2.73;91.21
4273;BME280;63887;53.656;9.810;2023-02-27T04:00:16;102949.78;;;-2.71;91.22
4273;BME280;63887;53.656;9.810;2023-02-27T04:02:44;102964.22;;;-2.75;91.62
4273;BME280;63887;53.656;9.810;2023-02-27T04:05:12;102968.53;;;-2.74;91.48
4273;BME280;63887;53.656;9.810;2023-02-27T04:07:45;102966.13;;;-2.69;90.86
4273;BME280;63887;53.656;9.810;2023-02-27T04:10:24;102966.13;;;-2.69;90.94
4273;BME280;63887;53.656;9.810;2023-02-27T04:13:07;102976.34;;;-2.71;90.76
4273;BME280;63887;53.656;9.810;2023-02-27T04:15:50;102982.41;;;-2.68;90.81
4273;BME280;63887;53.656;9.810;2023-02-27T04:18:31;102983.44;;;-2.63;90.78
4273;BME280;63887;53.656;9.810;2023-02-27T04:21:08;102981.75;;;-2.63;90.51
4273;BME280;63887;53.656;9.810;2023-02-27T04:23:38;102988.41;;;-2.68;90.53
4273;BME280;63887;53.656;9.810;2023-02-27T04:26:16;102998.81;;;-2.65;91.13
4273;BME280;63887;53.656;9.810;2023-02-27T04:28:52;102994.56;;;-2.64;91.34
4273;BME280;63887;53.656;9.810;2023-02-27T04:31:28;103000.63;;;-2.62;91.42
4273;BME280;63887;53.656;9.810;2023-02-27T04:34:00;103001.53;;;-2.60;92.12
4273;BME280;63887;53.656;9.810;2023-02-27T04:36:31;102991.94;;;-2.66;91.75
4273;BME280;63887;53.656;9.810;2023-02-27T04:39:04;103005.84;;;-2.59;90.97
4273;BME280;63887;53.656;9.810;2023-02-27T04:41:36;103001.50;;;-2.62;90.98
4273;BME280;63887;53.656;9.810;2023-02-27T04:44:04;103003.19;;;-2.62;91.01
4273;BME280;63887;53.656;9.810;2023-02-27T04:46:35;103003.25;;;-2.61;91.69
4273;BME280;63887;53.656;9.810;2023-02-27T04:49:08;103008.38;;;-2.61;91.75
4273;BME280;63887;53.656;9.810;2023-02-27T04:51:43;103009.25;;;-2.60;92.07
4273;BME280;63887;53.656;9.810;2023-02-27T04:54:13;103010.28;;;-2.55;91.69
4273;BME280;63887;53.656;9.810;2023-02-27T04:56:45;103010.16;;;-2.58;91.82
4273;BME280;63887;53.656;9.810;2023-02-27T04:59:16;103011.81;;;-2.60;91.87
4273;BME280;63887;53.656;9.810;2023-02-27T05:01:51;103007.16;;;-2.71;92.75
4273;BME280;63887;53.656;9.810;2023-02-27T05:04:21;103012.47;;;-2.66;92.23
4273;BME280;63887;53.656;9.810;2023-02-27T05:06:53;103012.34;;;-2.69;92.10
4273;BME280;63887;53.656;9.810;2023-02-27T05:09:25;103017.44;;;-2.71;91.87
4273;BME280;63887;53.656;9.810;2023-02-27T05:11:59;103018.75;;;-2.82;92.88
4273;BME280;63887;53.656;9.810;2023-02-27T05:14:31;103016.00;;;-2.86;92.58
4273;BME280;63887;53.656;9.810;2023-02-27T05:17:02;103018.63;;;-2.85;92.60
4273;BME280;63887;53.656;9.810;2023-02-27T05:19:31;103020.47;;;-2.82;91.97
4273;BME280;63887;53.656;9.810;2023-02-27T05:22:08;103018.63;;;-2.85;93.32
4273;BME280;63887;53.656;9.810;2023-02-27T05:24:45;103023.72;;;-2.86;93.06
4273;BME280;63887;53.656;9.810;2023-02-27T05:27:29;103026.94;;;-2.92;93.22
4273;BME280;63887;53.656;9.810;2023-02-27T05:29:59;103024.47;;;-2.89;93.49
4273;BME280;63887;53.656;9.810;2023-02-27T05:32:32;103026.00;;;-2.94;93.54
4273;BME280;63887;53.656;9.810;2023-02-27T05:35:06;103020.13;;;-2.91;93.62
4273;BME280;63887;53.656;9.810;2023-02-27T05:37:38;103018.41;;;-2.91;93.27
4273;BME280;63887;53.656;9.810;2023-02-27T05:40:10;103021.00;;;-2.91;94.02
4273;BME280;63887;53.656;9.810;2023-02-27T05:42:43;103021.16;;;-2.86;93.62
4273;BME280;63887;53.656;9.810;2023-02-27T05:45:13;103025.31;;;-2.90;93.99
4273;BME280;63887;53.656;9.810;2023-02-27T05:47:45;103019.44;;;-2.86;93.03
4273;BME280;63887;53.656;9.810;2023-02-27T05:50:16;103030.59;;;-2.85;93.21
4273;BME280;63887;53.656;9.810;2023-02-27T05:52:46;103023.81;;;-2.83;93.64
4273;BME280;63887;53.656;9.810;2023-02-27T05:55:17;103023.72;;;-2.86;93.31
4273;BME280;63887;53.656;9.810;2023-02-27T05:57:50;103027.34;;;-2.81;93.35
4273;BME280;63887;53.656;9.810;2023-02-27T06:00:21;103023.59;;;-2.89;93.63
4273;BME280;63887;53.656;9.810;2023-02-27T06:02:49;103026.13;;;-2.91;93.83
4273;BME280;63887;53.656;9.810;2023-02-27T06:05:18;103026.19;;;-2.89;94.00
4273;BME280;63887;53.656;9.810;2023-02-27T06:07:45;103028.03;;;-2.85;93.45
4273;BME280;63887;53.656;9.810;2023-02-27T06:10:14;103034.84;;;-2.86;93.66
4273;BME280;63887;53.656;9.810;2023-02-27T06:12:41;103036.56;;;-2.86;94.42
4273;BME280;63887;53.656;9.810;2023-02-27T06:15:10;103036.44;;;-2.67;93.89
4273;BME280;63887;53.656;9.810;2023-02-27T06:17:37;103033.25;;;-2.60;92.95
4273;BME280;63887;53.656;9.810;2023-02-27T06:20:05;103036.34;;;-2.68;93.17
4273;BME280;63887;53.656;9.810;2023-02-27T06:22:32;103038.03;;;-2.69;93.60
4273;BME280;63887;53.656;9.810;2023-02-27T06:24:58;103045.81;;;-2.67;93.17
4273;BME280;63887;53.656;9.810;2023-02-27T06:27:25;103045.16;;;-2.62;92.94
4273;BME280;63887;53.656;9.810;2023-02-27T06:29:51;103045.06;;;-2.65;93.25
4273;BME280;63887;53.656;9.810;2023-02-27T06:32:20;103050.81;;;-2.71;93.36
4273;BME280;63887;53.656;9.810;2023-02-27T06:34:49;103051.22;;;-2.60;93.02
4273;BME280;63887;53.656;9.810;2023-02-27T06:37:15;103054.78;;;-2.56;93.27
4273;BME280;63887;53.656;9.810;2023-02-27T06:39:42;103060.91;;;-2.53;93.08
4273;BME280;63887;53.656;9.810;2023-02-27T06:42:08;103060.84;;;-2.54;92.99
4273;BME280;63887;53.656;9.810;2023-02-27T06:44:35;103061.66;;;-2.55;93.05
4273;BME280;63887;53.656;9.810;2023-02-27T06:47:01;103066.06;;;-2.53;92.91
4273;BME280;63887;53.656;9.810;2023-02-27T06:49:29;103067.81;;;-2.52;92.85
4273;BME280;63887;53.656;9.810;2023-02-27T06:51:55;103066.16;;;-2.50;92.81
4273;BME280;63887;53.656;9.810;2023-02-27T06:54:22;103073.53;;;-2.35;92.38
4273;BME280;63887;53.656;9.810;2023-02-27T06:56:48;103075.38;;;-2.31;92.09
4273;BME280;63887;53.656;9.810;2023-02-27T06:59:16;103073.75;;;-2.29;92.50
4273;BME280;63887;53.656;9.810;2023-02-27T07:01:42;103080.63;;;-2.28;92.44
4273;BME280;63887;53.656;9.810;2023-02-27T07:04:11;103072.63;;;-2.12;91.68
4273;BME280;63887;53.656;9.810;2023-02-27T07:06:39;103077.38;;;-1.73;91.11
4273;BME280;63887;53.656;9.810;2023-02-27T07:09:06;103080.03;;;-1.44;88.81
4273;BME280;63887;53.656;9.810;2023-02-27T07:11:32;103081.19;;;-1.06;86.16
4273;BME280;63887;53.656;9.810;2023-02-27T07:13:59;103075.16;;;-1.07;86.60
4273;BME280;63887;53.656;9.810;2023-02-27T07:16:25;103082.34;;;-0.97;85.62
4273;BME280;63887;53.656;9.810;2023-02-27T07:18:51;103090.53;;;-1.10;85.89
4273;BME280;63887;53.656;9.810;2023-02-27T07:21:18;103094.00;;;-1.36;87.19
4273;BME280;63887;53.656;9.810;2023-02-27T07:23:46;103099.03;;;-1.12;86.63
4273;BME280;63887;53.656;9.810;2023-02-27T07:26:12;103091.09;;;-0.92;85.92
4273;BME280;63887;53.656;9.810;2023-02-27T07:28:39;103092.53;;;-1.01;86.83
4273;BME280;63887;53.656;9.810;2023-02-27T07:31:05;103093.94;;;-1.11;86.79
4273;BME280;63887;53.656;9.810;2023-02-27T07:33:31;103105.38;;;-1.03;86.83
4273;BME280;63887;53.656;9.810;2023-02-27T07:35:58;103096.72;;;-0.75;85.72
4273;BME280;63887;53.656;9.810;2023-02-27T07:38:25;103101.25;;;-0.68;85.29
4273;BME280;63887;53.656;9.810;2023-02-27T07:40:54;103103.88;;;-0.66;85.37
4273;BME280;63887;53.656;9.810;2023-02-27T07:43:20;103104.22;;;-0.54;84.96
4273;BME280;63887;53.656;9.810;2023-02-27T07:45:47;103100.94;;;-0.48;84.94
4273;BME280;63887;53.656;9.810;2023-02-27T07:48:15;103101.78;;;-0.49;85.77
4273;BME280;63887;53.656;9.810;2023-02-27T07:50:41;103103.72;;;-0.42;85.98
4273;BME280;63887;53.656;9.810;2023-02-27T07:53:08;103114.19;;;-0.36;86.22
4273;BME280;63887;53.656;9.810;2023-02-27T07:55:35;103103.06;;;-0.34;85.93
4273;BME280;63887;53.656;9.810;2023-02-27T07:58:03;103102.50;;;-0.23;85.93
4273;BME280;63887;53.656;9.810;2023-02-27T08:00:29;103101.94;;;-0.13;86.24
4273;BME280;63887;53.656;9.810;2023-02-27T08:02:56;103102.03;;;-0.09;86.45
4273;BME280;63887;53.656;9.810;2023-02-27T08:05:22;103100.00;;;0.13;85.40
4273;BME280;63887;53.656;9.810;2023-02-27T08:07:49;103105.91;;;0.07;85.88
4273;BME280;63887;53.656;9.810;2023-02-27T08:10:16;103103.63;;;0.19;86.39
4273;BME280;63887;53.656;9.810;2023-02-27T08:12:42;103107.13;;;0.21;86.75
4273;BME280;63887;53.656;9.810;2023-02-27T08:15:11;103107.13;;;0.21;86.28
4273;BME280;63887;53.656;9.810;2023-02-27T08:17:38;103107.91;;;0.52;86.67
4273;BME280;63887;53.656;9.810;2023-02-27T08:20:05;103102.69;;;0.50;87.00
4273;BME280;63887;53.656;9.810;2023-02-27T08:22:33;103102.81;;;0.56;86.97
4273;BME280;63887;53.656;9.810;2023-02-27T08:25:00;103097.97;;;0.69;87.23
4273;BME280;63887;53.656;9.810;2023-02-27T08:27:26;103095.69;;;0.82;87.65
4273;BME280;63887;53.656;9.810;2023-02-27T08:29:53;103095.69;;;0.82;87.02
4273;BME280;63887;53.656;9.810;2023-02-27T08:32:20;103095.94;;;0.93;87.17
4273;BME280;63887;53.656;9.810;2023-02-27T08:34:47;103102.00;;;0.94;87.81
4273;BME280;63887;53.656;9.810;2023-02-27T08:37:13;103099.56;;;1.01;87.98
4273;BME280;63887;53.656;9.810;2023-02-27T08:39:40;103092.13;;;1.15;87.78
4273;BME280;63887;53.656;9.810;2023-02-27T08:42:06;103087.84;;;1.17;88.14
4273;BME280;63887;53.656;9.810;2023-02-27T08:44:33;103088.03;;;1.25;88.09
4273;BME280;63887;53.656;9.810;2023-02-27T08:46:59;103094.97;;;1.27;87.76
4273;BME280;63887;53.656;9.810;2023-02-27T08:49:27;103099.50;;;1.37;88.02
4273;BME280;63887;53.656;9.810;2023-02-27T08:51:53;103102.94;;;1.38;87.83
4273;BME280;63887;53.656;9.810;2023-02-27T08:54:20;103106.00;;;1.62;87.53
4273;BME280;63887;53.656;9.810;2023-02-27T08:56:47;103118.19;;;1.66;86.72
4273;BME280;63887;53.656;9.810;2023-02-27T08:59:13;103116.47;;;1.67;87.63
4273;BME280;63887;53.656;9.810;2023-02-27T09:01:40;103113.03;;;1.68;87.54
4273;BME280;63887;53.656;9.810;2023-02-27T09:04:08;103130.59;;;1.84;86.85
4273;BME280;63887;53.656;9.810;2023-02-27T09:06:37;103123.00;;;1.93;86.56
4273;BME280;63887;53.656;9.810;2023-02-27T09:09:03;103134.19;;;1.92;86.86
4273;BME280;63887;53.656;9.810;2023-02-27T09:11:30;103134.16;;;1.89;86.42
4273;BME280;63887;53.656;9.810;2023-02-27T09:13:57;103124.03;;;2.01;86.65
4273;BME280;63887;53.656;9.810;2023-02-27T09:16:24;103115.59;;;2.12;85.29
4273;BME280;63887;53.656;9.810;2023-02-27T09:18:51;103127.66;;;2.11;86.03
4273;BME280;63887;53.656;9.810;2023-02-27T09:21:18;103130.41;;;2.20;85.15
4273;BME280;63887;53.656;9.810;2023-02-27T09:23:46;103126.97;;;2.21;85.68
4273;BME280;63887;53.656;9.810;2023-02-27T09:26:13;103124.50;;;2.26;85.44
4273;BME280;63887;53.656;9.810;2023-02-27T09:28:40;103132.28;;;2.27;85.39
4273;BME280;63887;53.656;9.810;2023-02-27T09:31:07;103136.66;;;2.31;85.27
4273;BME280;63887;53.656;9.810;2023-02-27T09:33:34;103138.66;;;2.48;84.56
4273;BME280;63887;53.656;9.810;2023-02-27T09:36:02;103139.72;;;2.59;83.76
4273;BME280;63887;53.656;9.810;2023-02-27T09:38:29;103138.72;;;2.52;83.63
4273;BME280;63887;53.656;9.810;2023-02-27T09:40:57;103131.88;;;2.54;82.95
4273;BME280;63887;53.656;9.810;2023-02-27T09:43:29;103138.06;;;2.64;82.34
4273;BME280;63887;53.656;9.810;2023-02-27T09:46:00;103138.25;;;2.76;80.00
4273;BME280;63887;53.656;9.810;2023-02-27T09:48:29;103133.03;;;2.73;80.61
4273;BME280;63887;53.656;9.810;2023-02-27T09:50:58;103140.22;;;2.91;79.91
4273;BME280;63887;53.656;9.810;2023-02-27T09:53:27;103132.25;;;2.79;80.23
4273;BME280;63887;53.656;9.810;2023-02-27T09:56:00;103127.28;;;2.94;79.27
4273;BME280;63887;53.656;9.810;2023-02-27T09:58:37;103123.53;;;2.72;80.25
4273;BME280;63887;53.656;9.810;2023-02-27T10:01:12;103120.13;;;2.76;80.32
4273;BME280;63887;53.656;9.810;2023-02-27T10:06:43;103122.47;;;3.18;76.06
4273;BME280;63887;53.656;9.810;2023-02-27T10:09:23;103123.38;;;3.22;74.66
4273;BME280;63887;53.656;9.810;2023-02-27T10:12:05;103132.06;;;3.25;74.34
4273;BME280;63887;53.656;9.810;2023-02-27T10:14:38;103120.97;;;3.34;74.34
4273;BME280;63887;53.656;9.810;2023-02-27T10:17:12;103118.56;;;3.49;73.10
4273;BME280;63887;53.656;9.810;2023-02-27T10:19:44;103118.72;;;3.62;73.61
4273;BME280;63887;53.656;9.810;2023-02-27T10:22:17;103123.09;;;3.69;71.72
4273;BME280;63887;53.656;9.810;2023-02-27T10:24:48;103132.91;;;3.93;72.92
4273;BME280;63887;53.656;9.810;2023-02-27T10:27:19;103132.16;;;4.04;72.01
4273;BME280;63887;53.656;9.810;2023-02-27T10:29:46;103127.06;;;4.15;72.21
4273;BME280;63887;53.656;9.810;2023-02-27T10:32:17;103126.31;;;4.28;71.26
4273;BME280;63887;53.656;9.810;2023-02-27T10:34:47;103130.88;;;4.51;69.98
4273;BME280;63887;53.656;9.810;2023-02-27T10:37:17;103132.50;;;4.39;70.08
4273;BME280;63887;53.656;9.810;2023-02-27T10:39:48;103138.66;;;4.49;69.99
4273;BME280;63887;53.656;9.810;2023-02-27T10:42:18;103140.41;;;4.55;70.08
4273;BME280;63887;53.656;9.810;2023-02-27T10:44:47;103136.16;;;4.61;69.88
4273;BME280;63887;53.656;9.810;2023-02-27T10:47:21;103142.16;;;4.56;70.09
4273;BME280;63887;53.656;9.810;2023-02-27T10:49:49;103145.72;;;4.68;68.21
4273;BME280;63887;53.656;9.810;2023-02-27T10:52:16;103150.06;;;4.69;67.58
4273;BME280;63887;53.656;9.810;2023-02-27T10:54:44;103150.81;;;4.55;67.25
4273;BME280;63887;53.656;9.810;2023-02-27T10:57:25;103144.84;;;4.66;67.75
4273;BME280;63887;53.656;9.810;2023-02-27T10:59:54;103149.28;;;4.79;67.38
4273;BME280;63887;53.656;9.810;2023-02-27T11:02:25;103145.00;;;4.86;65.80
4273;BME280;63887;53.656;9.810;2023-02-27T11:04:55;103143.25;;;4.85;65.55
4273;BME280;63887;53.656;9.810;2023-02-27T11:07:29;103145.06;;;4.95;63.85
4273;BME280;63887;53.656;9.810;2023-02-27T11:10:00;103142.41;;;4.89;64.06
4273;BME280;63887;53.656;9.810;2023-02-27T11:12:31;103148.53;;;4.94;64.78
4273;BME280;63887;53.656;9.810;2023-02-27T11:14:59;103151.25;;;5.11;63.98
4273;BME280;63887;53.656;9.810;2023-02-27T11:17:28;103146.72;;;4.84;64.78
4273;BME280;63887;53.656;9.810;2023-02-27T11:19:57;103147.78;;;5.12;64.42
4273;BME280;63887;53.656;9.810;2023-02-27T11:22:26;103144.41;;;5.34;62.90
4273;BME280;63887;53.656;9.810;2023-02-27T11:25:19;103147.94;;;5.38;64.37
4273;BME280;63887;53.656;9.810;2023-02-27T11:27:46;103147.00;;;5.24;64.24
4273;BME280;63887;53.656;9.810;2023-02-27T11:30:24;103151.34;;;5.32;62.32
4273;BME280;63887;53.656;9.810;2023-02-27T11:32:54;103143.59;;;5.37;62.20
4273;BME280;63887;53.656;9.810;2023-02-27T11:35:23;103153.16;;;5.41;62.24
4273;BME280;63887;53.656;9.810;2023-02-27T11:37:52;103150.50;;;5.35;61.61
4273;BME280;63887;53.656;9.810;2023-02-27T11:40:22;103153.16;;;5.41;61.68
4273;BME280;63887;53.656;9.810;2023-02-27T11:42:54;103148.00;;;5.53;60.33
4273;BME280;63887;53.656;9.810;2023-02-27T11:45:27;103154.88;;;5.45;60.01
4273;BME280;63887;53.656;9.810;2023-02-27T11:47:58;103159.22;;;5.43;58.60
4273;BME280;63887;53.656;9.810;2023-02-27T11:50:39;103160.09;;;5.42;57.77
4273;BME280;63887;53.656;9.810;2023-02-27T11:53:29;103157.50;;;5.48;57.78
4273;BME280;63887;53.656;9.810;2023-02-27T11:56:01;103161.03;;;5.61;58.00
4273;BME280;63887;53.656;9.810;2023-02-27T11:58:34;103150.69;;;5.73;56.56
4273;BME280;63887;53.656;9.810;2023-02-27T12:01:08;103160.22;;;5.69;54.00
4273;BME280;63887;53.656;9.810;2023-02-27T12:03:46;103157.56;;;5.60;54.25
4273;BME280;63887;53.656;9.810;2023-02-27T12:06:17;103148.00;;;5.53;55.08
4273;BME280;63887;53.656;9.810;2023-02-27T12:08:47;103147.09;;;5.47;53.87
4273;BME280;63887;53.656;9.810;2023-02-27T12:11:24;103144.53;;;5.51;52.41
4273;BME280;63887;53.656;9.810;2023-02-27T12:13:57;103141.13;;;5.66;53.80
4273;BME280;63887;53.656;9.810;2023-02-27T12:16:28;103140.13;;;5.39;54.48
4273;BME280;63887;53.656;9.810;2023-02-27T12:18:58;103147.16;;;5.62;53.63
4273;BME280;63887;53.656;9.810;2023-02-27T12:21:31;103148.03;;;5.64;54.61
4273;BME280;63887;53.656;9.810;2023-02-27T12:24:01;103139.34;;;5.59;54.94
4273;BME280;63887;53.656;9.810;2023-02-27T12:26:36;103149.75;;;5.54;54.33
4273;BME280;63887;53.656;9.810;2023-02-27T12:29:12;103142.75;;;5.50;53.88
4273;BME280;63887;53.656;9.810;2023-02-27T12:31:47;103135.00;;;5.56;55.04
4273;BME280;63887;53.656;9.810;2023-02-27T12:34:21;103137.59;;;5.61;55.07
4273;BME280;63887;53.656;9.810;2023-02-27T12:36:51;103128.88;;;5.45;54.62
4273;BME280;63887;53.656;9.810;2023-02-27T12:39:19;103130.66;;;5.61;54.51
4273;BME280;63887;53.656;9.810;2023-02-27T12:42:18;103127.25;;;5.70;53.79
4273;BME280;63887;53.656;9.810;2023-02-27T12:45:08;103129.78;;;5.58;54.50
4273;BME280;63887;53.656;9.810;2023-02-27T12:47:46;103128.13;;;5.80;54.98
4273;BME280;63887;53.656;9.810;2023-02-27T12:50:21;103128.09;;;5.72;54.72
4273;BME280;63887;53.656;9.810;2023-02-27T12:52:58;103121.22;;;5.82;54.44
4273;BME280;63887;53.656;9.810;2023-02-27T12:55:29;103122.06;;;5.84;54.79
4273;BME280;63887;53.656;9.810;2023-02-27T12:58:15;103116.91;;;5.94;53.82
4273;BME280;63887;53.656;9.810;2023-02-27T13:00:47;103121.16;;;5.77;55.05
4273;BME280;63887;53.656;9.810;2023-02-27T13:03:20;103105.63;;;5.91;53.88
4273;BME280;63887;53.656;9.810;2023-02-27T13:05:57;103114.34;;;5.99;54.72
4273;BME280;63887;53.656;9.810;2023-02-27T13:08:53;103106.50;;;6.10;53.87
4273;BME280;63887;53.656;9.810;2023-02-27T13:11:34;103110.00;;;5.96;55.27
4273;BME280;63887;53.656;9.810;2023-02-27T13:14:10;103103.06;;;6.20;54.58
4273;BME280;63887;53.656;9.810;2023-02-27T13:16:43;103107.41;;;6.22;54.03
4273;BME280;63887;53.656;9.810;2023-02-27T13:19:13;103109.13;;;6.05;54.35
4273;BME280;63887;53.656;9.810;2023-02-27T13:21:46;103112.59;;;6.07;54.25
4273;BME280;63887;53.656;9.810;2023-02-27T13:24:22;103100.44;;;6.08;54.94
4273;BME280;63887;53.656;9.810;2023-02-27T13:26:53;103107.34;;;5.95;54.99
4273;BME280;63887;53.656;9.810;2023-02-27T13:29:34;103112.56;;;5.93;55.25
4273;BME280;63887;53.656;9.810;2023-02-27T13:32:12;103106.47;;;5.93;54.61